^^
Saratoga-Weather Station Historical Data
Daily Summary for March 21, 2020 Units:  Both    English   Metric
Daily Weekly Monthly Yearly Custom
  High: Low: Average:
Temperature: 61.5 °F /  16.4 °C 50.4 °F /  10.2 °C 54.5 °F /  12.5 °C
Dew Point: 38.1 °F /  3.4 °C 31.5 °F /  -0.3 °C 33.6 °F /  0.9 °C
Humidity: 52% 38% 45%
Wind Speed: 12.1mph /  19.5km/h - 4.3mph /  6.9km/h
Wind Gust: 17mph /  27.4km/h - -
Wind- - East
Pressure: 29.9 in /  1011.5 hPa 29.8 in /  1010.2 hPa -
Precipitation: 0 in /  0.0 mm    
Historical Graphs
 
 
Tabular Data for March 21, 2020
Time Temperature Dew Point Pressure Wind Wind Speed Wind Gust Humidity Rainfall Rate (Hourly) solar
00:02 58.5 °F /  14.7 °C 33.6 °F /  0.9 °C 29.9in /  1011.5hPa NE 6.9mph /  11.1km/h 10mph /  16.1km/h 39% 0in /  0.0mm 0 W/m2
00:07 58.5 °F /  14.7 °C 32.9 °F /  0.5 °C 29.9in /  1011.5hPa East 0.9mph /  1.4km/h 10mph /  16.1km/h 38% 0in /  0.0mm 0 W/m2
00:12 58.3 °F /  14.6 °C 32.7 °F /  0.4 °C 29.9in /  1011.5hPa ESE 2.9mph /  4.7km/h 9mph /  14.5km/h 38% 0in /  0.0mm 0 W/m2
00:17 58.3 °F /  14.6 °C 32.7 °F /  0.4 °C 29.9in /  1011.5hPa SE 0.9mph /  1.4km/h 5mph /  8km/h 38% 0in /  0.0mm 0 W/m2
00:22 58.3 °F /  14.6 °C 32.7 °F /  0.4 °C 29.9in /  1011.2hPa ENE 2mph /  3.2km/h 7mph /  11.3km/h 38% 0in /  0.0mm 0 W/m2
00:27 58.3 °F /  14.6 °C 32.7 °F /  0.4 °C 29.9in /  1011.5hPa ENE 8.1mph /  13km/h 9mph /  14.5km/h 38% 0in /  0.0mm 0 W/m2
00:32 58.1 °F /  14.5 °C 32.5 °F /  0.3 °C 29.9in /  1011.5hPa ESE 2mph /  3.2km/h 3mph /  4.8km/h 38% 0in /  0.0mm 0 W/m2
00:37 57.9 °F /  14.4 °C 33.1 °F /  0.6 °C 29.9in /  1011.5hPa ENE 0.9mph /  1.4km/h 4mph /  6.4km/h 39% 0in /  0.0mm 0 W/m2
00:42 57.7 °F /  14.3 °C 32.4 °F /  0.2 °C 29.9in /  1011.5hPa ENE 0.9mph /  1.4km/h 9mph /  14.5km/h 38% 0in /  0.0mm 0 W/m2
00:47 57.6 °F /  14.2 °C 32.2 °F /  0.1 °C 29.9in /  1011.5hPa SSE 4mph /  6.4km/h 6mph /  9.7km/h 38% 0in /  0.0mm 0 W/m2
00:52 57.4 °F /  14.1 °C 32 °F /  0 °C 29.9in /  1011.5hPa ENE 2mph /  3.2km/h 9mph /  14.5km/h 38% 0in /  0.0mm 0 W/m2
00:57 57.4 °F /  14.1 °C 32 °F /  0 °C 29.9in /  1011.5hPa ENE 4.9mph /  7.9km/h 10mph /  16.1km/h 38% 0in /  0.0mm 0 W/m2
01:02 57.4 °F /  14.1 °C 32 °F /  0 °C 29.9in /  1011.5hPa SE 4mph /  6.4km/h 4mph /  6.4km/h 38% 0in /  0.0mm 0 W/m2
01:07 57 °F /  13.9 °C 31.6 °F /  -0.2 °C 29.9in /  1011.5hPa NE 4mph /  6.4km/h 8mph /  12.9km/h 38% 0in /  0.0mm 0 W/m2
01:12 57 °F /  13.9 °C 31.6 °F /  -0.2 °C 29.9in /  1011.5hPa ESE 4mph /  6.4km/h 8mph /  12.9km/h 38% 0in /  0.0mm 0 W/m2
01:17 56.8 °F /  13.8 °C 32.2 °F /  0.1 °C 29.9in /  1011.5hPa ENE 8.9mph /  14.3km/h 12mph /  19.3km/h 39% 0in /  0.0mm 0 W/m2
01:22 56.7 °F /  13.7 °C 32 °F /  0 °C 29.9in /  1011.5hPa East 2mph /  3.2km/h 6mph /  9.7km/h 39% 0in /  0.0mm 0 W/m2
01:27 56.7 °F /  13.7 °C 32 °F /  0 °C 29.9in /  1011.5hPa ENE 4mph /  6.4km/h 7mph /  11.3km/h 39% 0in /  0.0mm 0 W/m2
01:32 56.5 °F /  13.6 °C 31.8 °F /  -0.1 °C 29.9in /  1011.5hPa ESE 8.9mph /  14.3km/h 9mph /  14.5km/h 39% 0in /  0.0mm 0 W/m2
01:37 56.1 °F /  13.4 °C 32.2 °F /  0.1 °C 29.9in /  1011.5hPa East 2.9mph /  4.7km/h 5mph /  8km/h 40% 0in /  0.0mm 0 W/m2
01:42 55.9 °F /  13.3 °C 32 °F /  0 °C 29.9in /  1011.5hPa ENE 6mph /  9.7km/h 7mph /  11.3km/h 40% 0in /  0.0mm 0 W/m2
01:47 55.9 °F /  13.3 °C 32 °F /  0 °C 29.9in /  1011.2hPa ENE 4.9mph /  7.9km/h 5mph /  8km/h 40% 0in /  0.0mm 0 W/m2
01:52 55.8 °F /  13.2 °C 31.8 °F /  -0.1 °C 29.9in /  1011.2hPa ESE 2mph /  3.2km/h 7mph /  11.3km/h 40% 0in /  0.0mm 0 W/m2
01:57 55.6 °F /  13.1 °C 32.2 °F /  0.1 °C 29.9in /  1011.2hPa East 2.9mph /  4.7km/h 4mph /  6.4km/h 41% 0in /  0.0mm 0 W/m2
02:02 55.6 °F /  13.1 °C 32.2 °F /  0.1 °C 29.9in /  1011.2hPa East 4mph /  6.4km/h 9mph /  14.5km/h 41% 0in /  0.0mm 0 W/m2
02:07 55.4 °F /  13 °C 32 °F /  0 °C 29.9in /  1011.2hPa East 2.9mph /  4.7km/h 8mph /  12.9km/h 41% 0in /  0.0mm 0 W/m2
02:12 55.2 °F /  12.9 °C 32 °F /  0 °C 29.9in /  1011.2hPa SE 4.9mph /  7.9km/h 9mph /  14.5km/h 41% 0in /  0.0mm 0 W/m2
02:17 55.2 °F /  12.9 °C 32 °F /  0 °C 29.9in /  1011.2hPa ENE 4mph /  6.4km/h 6mph /  9.7km/h 41% 0in /  0.0mm 0 W/m2
02:22 55 °F /  12.8 °C 31.8 °F /  -0.1 °C 29.9in /  1010.8hPa ENE 2.9mph /  4.7km/h 11mph /  17.7km/h 41% 0in /  0.0mm 0 W/m2
02:27 55 °F /  12.8 °C 32.4 °F /  0.2 °C 29.9in /  1010.8hPa ENE 2mph /  3.2km/h 5mph /  8km/h 42% 0in /  0.0mm 0 W/m2
02:32 54.9 °F /  12.7 °C 32.2 °F /  0.1 °C 29.9in /  1010.8hPa SSE 6mph /  9.7km/h 9mph /  14.5km/h 42% 0in /  0.0mm 0 W/m2
02:37 54.7 °F /  12.6 °C 32 °F /  0 °C 29.9in /  1010.8hPa ESE 8.1mph /  13km/h 8mph /  12.9km/h 42% 0in /  0.0mm 0 W/m2
02:42 54.5 °F /  12.5 °C 31.8 °F /  -0.1 °C 29.9in /  1010.8hPa East 2.9mph /  4.7km/h 9mph /  14.5km/h 42% 0in /  0.0mm 0 W/m2
02:47 54.1 °F /  12.3 °C 31.5 °F /  -0.3 °C 29.9in /  1010.8hPa ESE 4mph /  6.4km/h 13mph /  20.9km/h 42% 0in /  0.0mm 0 W/m2
02:52 54.1 °F /  12.3 °C 32.2 °F /  0.1 °C 29.9in /  1010.8hPa SE 4mph /  6.4km/h 9mph /  14.5km/h 43% 0in /  0.0mm 0 W/m2
02:57 54 °F /  12.2 °C 32 °F /  0 °C 29.9in /  1010.8hPa East 8.1mph /  13km/h 10mph /  16.1km/h 43% 0in /  0.0mm 0 W/m2
03:02 53.8 °F /  12.1 °C 31.8 °F /  -0.1 °C 29.9in /  1010.8hPa SSE 4mph /  6.4km/h 7mph /  11.3km/h 43% 0in /  0.0mm 0 W/m2
03:07 53.8 °F /  12.1 °C 31.8 °F /  -0.1 °C 29.9in /  1010.8hPa ENE 4mph /  6.4km/h 10mph /  16.1km/h 43% 0in /  0.0mm 0 W/m2
03:12 53.6 °F /  12 °C 31.6 °F /  -0.2 °C 29.9in /  1010.8hPa SE 2mph /  3.2km/h 10mph /  16.1km/h 43% 0in /  0.0mm 0 W/m2
03:17 53.4 °F /  11.9 °C 32 °F /  0 °C 29.9in /  1010.8hPa SSE 2.9mph /  4.7km/h 6mph /  9.7km/h 44% 0in /  0.0mm 0 W/m2
03:22 53.2 °F /  11.8 °C 31.8 °F /  -0.1 °C 29.9in /  1010.8hPa NE 4.9mph /  7.9km/h 11mph /  17.7km/h 44% 0in /  0.0mm 0 W/m2
03:27 53.2 °F /  11.8 °C 31.8 °F /  -0.1 °C 29.9in /  1010.8hPa SE 2.9mph /  4.7km/h 10mph /  16.1km/h 44% 0in /  0.0mm 0 W/m2
03:32 53.2 °F /  11.8 °C 31.8 °F /  -0.1 °C 29.9in /  1010.8hPa ESE 4mph /  6.4km/h 9mph /  14.5km/h 44% 0in /  0.0mm 0 W/m2
03:37 53.1 °F /  11.7 °C 31.6 °F /  -0.2 °C 29.9in /  1010.8hPa East 2.9mph /  4.7km/h 6mph /  9.7km/h 44% 0in /  0.0mm 0 W/m2
03:42 53.1 °F /  11.7 °C 31.6 °F /  -0.2 °C 29.9in /  1010.8hPa ENE 2mph /  3.2km/h 9mph /  14.5km/h 44% 0in /  0.0mm 0 W/m2
03:47 52.9 °F /  11.6 °C 31.6 °F /  -0.2 °C 29.8in /  1010.5hPa SE 4.9mph /  7.9km/h 8mph /  12.9km/h 44% 0in /  0.0mm 0 W/m2
03:52 52.9 °F /  11.6 °C 32.2 °F /  0.1 °C 29.9in /  1010.8hPa NE 2.9mph /  4.7km/h 5mph /  8km/h 45% 0in /  0.0mm 0 W/m2
03:57 52.7 °F /  11.5 °C 32 °F /  0 °C 29.9in /  1010.8hPa East 4mph /  6.4km/h 9mph /  14.5km/h 45% 0in /  0.0mm 0 W/m2
04:02 52.5 °F /  11.4 °C 31.8 °F /  -0.1 °C 29.9in /  1010.8hPa ENE 4.9mph /  7.9km/h 8mph /  12.9km/h 45% 0in /  0.0mm 0 W/m2
04:07 52.5 °F /  11.4 °C 31.8 °F /  -0.1 °C 29.9in /  1010.8hPa SE 0.9mph /  1.4km/h 7mph /  11.3km/h 45% 0in /  0.0mm 0 W/m2
04:12 52.3 °F /  11.3 °C 31.6 °F /  -0.2 °C 29.8in /  1010.5hPa East 4mph /  6.4km/h 5mph /  8km/h 45% 0in /  0.0mm 0 W/m2
04:17 52.3 °F /  11.3 °C 32.2 °F /  0.1 °C 29.8in /  1010.5hPa ENE 2.9mph /  4.7km/h 7mph /  11.3km/h 46% 0in /  0.0mm 0 W/m2
04:23 52.3 °F /  11.3 °C 31.6 °F /  -0.2 °C 29.8in /  1010.5hPa ESE 8.9mph /  14.3km/h 9mph /  14.5km/h 45% 0in /  0.0mm 0 W/m2
04:28 52.3 °F /  11.3 °C 31.6 °F /  -0.2 °C 29.8in /  1010.5hPa ESE 4mph /  6.4km/h 8mph /  12.9km/h 45% 0in /  0.0mm 0 W/m2
04:33 52.2 °F /  11.2 °C 31.5 °F /  -0.3 °C 29.8in /  1010.5hPa East 6.9mph /  11.1km/h 8mph /  12.9km/h 45% 0in /  0.0mm 0 W/m2
04:38 52.2 °F /  11.2 °C 32 °F /  0 °C 29.8in /  1010.5hPa SE 2.9mph /  4.7km/h 11mph /  17.7km/h 46% 0in /  0.0mm 0 W/m2
04:43 52 °F /  11.1 °C 31.8 °F /  -0.1 °C 29.8in /  1010.5hPa East 2.9mph /  4.7km/h 10mph /  16.1km/h 46% 0in /  0.0mm 0 W/m2
04:48 52 °F /  11.1 °C 31.8 °F /  -0.1 °C 29.8in /  1010.5hPa ENE 2mph /  3.2km/h 6mph /  9.7km/h 46% 0in /  0.0mm 0 W/m2
04:53 51.8 °F /  11 °C 31.6 °F /  -0.2 °C 29.8in /  1010.5hPa South 2.9mph /  4.7km/h 9mph /  14.5km/h 46% 0in /  0.0mm 0 W/m2
04:58 51.6 °F /  10.9 °C 32 °F /  0 °C 29.8in /  1010.5hPa NE 4mph /  6.4km/h 9mph /  14.5km/h 47% 0in /  0.0mm 0 W/m2
05:03 51.4 °F /  10.8 °C 31.8 °F /  -0.1 °C 29.8in /  1010.5hPa SSE 10.1mph /  16.3km/h 10mph /  16.1km/h 47% 0in /  0.0mm 0 W/m2
05:08 51.4 °F /  10.8 °C 31.8 °F /  -0.1 °C 29.8in /  1010.5hPa ESE 2.9mph /  4.7km/h 8mph /  12.9km/h 47% 0in /  0.0mm 0 W/m2
05:13 51.4 °F /  10.8 °C 31.8 °F /  -0.1 °C 29.8in /  1010.5hPa ENE 4mph /  6.4km/h 7mph /  11.3km/h 47% 0in /  0.0mm 0 W/m2
05:18 51.4 °F /  10.8 °C 31.8 °F /  -0.1 °C 29.8in /  1010.5hPa ESE 6mph /  9.7km/h 6mph /  9.7km/h 47% 0in /  0.0mm 0 W/m2
05:23 51.3 °F /  10.7 °C 31.6 °F /  -0.2 °C 29.8in /  1010.5hPa East 6.9mph /  11.1km/h 7mph /  11.3km/h 47% 0in /  0.0mm 0 W/m2
05:28 51.3 °F /  10.7 °C 32.2 °F /  0.1 °C 29.8in /  1010.5hPa ESE 6.9mph /  11.1km/h 7mph /  11.3km/h 48% 0in /  0.0mm 0 W/m2
05:33 51.1 °F /  10.6 °C 32 °F /  0 °C 29.8in /  1010.5hPa ESE 6mph /  9.7km/h 10mph /  16.1km/h 48% 0in /  0.0mm 0 W/m2
05:38 51.1 °F /  10.6 °C 32 °F /  0 °C 29.8in /  1010.5hPa East 4mph /  6.4km/h 10mph /  16.1km/h 48% 0in /  0.0mm 0 W/m2
05:43 51.1 °F /  10.6 °C 32 °F /  0 °C 29.8in /  1010.5hPa ESE 2.9mph /  4.7km/h 7mph /  11.3km/h 48% 0in /  0.0mm 0 W/m2
05:48 50.9 °F /  10.5 °C 31.8 °F /  -0.1 °C 29.8in /  1010.5hPa East 6.9mph /  11.1km/h 7mph /  11.3km/h 48% 0in /  0.0mm 0 W/m2
05:53 50.7 °F /  10.4 °C 32.2 °F /  0.1 °C 29.8in /  1010.5hPa ESE 2.9mph /  4.7km/h 6mph /  9.7km/h 49% 0in /  0.0mm 0 W/m2
05:58 50.7 °F /  10.4 °C 32.2 °F /  0.1 °C 29.8in /  1010.2hPa ESE 8.9mph /  14.3km/h 9mph /  14.5km/h 49% 0in /  0.0mm 0 W/m2
06:03 50.7 °F /  10.4 °C 32.2 °F /  0.1 °C 29.8in /  1010.5hPa East 2mph /  3.2km/h 11mph /  17.7km/h 49% 0in /  0.0mm 0 W/m2
06:08 50.7 °F /  10.4 °C 32.2 °F /  0.1 °C 29.8in /  1010.5hPa NE 4mph /  6.4km/h 7mph /  11.3km/h 49% 0in /  0.0mm 0 W/m2
06:13 50.5 °F /  10.3 °C 32 °F /  0 °C 29.8in /  1010.5hPa SSE 2mph /  3.2km/h 11mph /  17.7km/h 49% 0in /  0.0mm 0 W/m2
06:19 50.5 °F /  10.3 °C 32 °F /  0 °C 29.8in /  1010.5hPa ENE 4mph /  6.4km/h 6mph /  9.7km/h 49% 0in /  0.0mm 0 W/m2
06:24 50.5 °F /  10.3 °C 32 °F /  0 °C 29.8in /  1010.5hPa East 4mph /  6.4km/h 11mph /  17.7km/h 49% 0in /  0.0mm 0 W/m2
06:29 50.5 °F /  10.3 °C 32 °F /  0 °C 29.8in /  1010.2hPa SSE 2mph /  3.2km/h 14mph /  22.5km/h 49% 0in /  0.0mm 5 W/m2
06:34 50.4 °F /  10.2 °C 32.4 °F /  0.2 °C 29.8in /  1010.5hPa ESE 4mph /  6.4km/h 9mph /  14.5km/h 50% 0in /  0.0mm 7 W/m2
06:39 50.4 °F /  10.2 °C 32.4 °F /  0.2 °C 29.8in /  1010.5hPa East 2mph /  3.2km/h 14mph /  22.5km/h 50% 0in /  0.0mm 9 W/m2
06:44 50.4 °F /  10.2 °C 32.4 °F /  0.2 °C 29.8in /  1010.5hPa East 2.9mph /  4.7km/h 5mph /  8km/h 50% 0in /  0.0mm 12 W/m2
06:49 50.4 °F /  10.2 °C 32.4 °F /  0.2 °C 29.8in /  1010.5hPa NNE 6.9mph /  11.1km/h 9mph /  14.5km/h 50% 0in /  0.0mm 16 W/m2
06:54 50.5 °F /  10.3 °C 32.5 °F /  0.3 °C 29.8in /  1010.5hPa SE 2.9mph /  4.7km/h 7mph /  11.3km/h 50% 0in /  0.0mm 19 W/m2
06:59 50.5 °F /  10.3 °C 33.1 °F /  0.6 °C 29.8in /  1010.5hPa East 6mph /  9.7km/h 7mph /  11.3km/h 51% 0in /  0.0mm 25 W/m2
07:04 50.5 °F /  10.3 °C 33.1 °F /  0.6 °C 29.8in /  1010.5hPa East 2.9mph /  4.7km/h 8mph /  12.9km/h 51% 0in /  0.0mm 28 W/m2
07:09 50.5 °F /  10.3 °C 33.1 °F /  0.6 °C 29.8in /  1010.5hPa SSE 4mph /  6.4km/h 5mph /  8km/h 51% 0in /  0.0mm 32 W/m2
07:14 50.7 °F /  10.4 °C 32.7 °F /  0.4 °C 29.8in /  1010.5hPa ESE 2.9mph /  4.7km/h 7mph /  11.3km/h 50% 0in /  0.0mm 33 W/m2
07:19 50.7 °F /  10.4 °C 33.3 °F /  0.7 °C 29.8in /  1010.5hPa East 2mph /  3.2km/h 9mph /  14.5km/h 51% 0in /  0.0mm 37 W/m2
07:24 50.7 °F /  10.4 °C 33.3 °F /  0.7 °C 29.8in /  1010.5hPa ENE 2.9mph /  4.7km/h 5mph /  8km/h 51% 0in /  0.0mm 39 W/m2
07:29 50.7 °F /  10.4 °C 33.3 °F /  0.7 °C 29.9in /  1010.8hPa ESE 6.9mph /  11.1km/h 11mph /  17.7km/h 51% 0in /  0.0mm 40 W/m2
07:34 50.9 °F /  10.5 °C 33.4 °F /  0.8 °C 29.9in /  1010.8hPa ENE 2.9mph /  4.7km/h 9mph /  14.5km/h 51% 0in /  0.0mm 40 W/m2
07:39 50.9 °F /  10.5 °C 34 °F /  1.1 °C 29.9in /  1010.8hPa NE 4mph /  6.4km/h 8mph /  12.9km/h 52% 0in /  0.0mm 44 W/m2
07:44 51.1 °F /  10.6 °C 33.6 °F /  0.9 °C 29.9in /  1010.8hPa ENE 2mph /  3.2km/h 11mph /  17.7km/h 51% 0in /  0.0mm 54 W/m2
07:49 51.1 °F /  10.6 °C 33.6 °F /  0.9 °C 29.9in /  1010.8hPa East 4.9mph /  7.9km/h 9mph /  14.5km/h 51% 0in /  0.0mm 97 W/m2
07:54 51.3 °F /  10.7 °C 33.8 °F /  1 °C 29.9in /  1010.8hPa ESE 0.9mph /  1.4km/h 12mph /  19.3km/h 51% 0in /  0.0mm 90 W/m2
07:59 51.4 °F /  10.8 °C 34 °F /  1.1 °C 29.9in /  1010.8hPa SSE 4.9mph /  7.9km/h 7mph /  11.3km/h 51% 0in /  0.0mm 83 W/m2
08:04 51.4 °F /  10.8 °C 34 °F /  1.1 °C 29.9in /  1010.8hPa ENE 4mph /  6.4km/h 9mph /  14.5km/h 51% 0in /  0.0mm 162 W/m2
08:09 51.8 °F /  11 °C 34.2 °F /  1.2 °C 29.9in /  1010.8hPa ENE 2mph /  3.2km/h 10mph /  16.1km/h 51% 0in /  0.0mm 178 W/m2
08:14 52 °F /  11.1 °C 34.3 °F /  1.3 °C 29.9in /  1010.8hPa SE 4mph /  6.4km/h 5mph /  8km/h 51% 0in /  0.0mm 192 W/m2
08:19 52.2 °F /  11.2 °C 34.2 °F /  1.2 °C 29.9in /  1010.8hPa ESE 6mph /  9.7km/h 10mph /  16.1km/h 50% 0in /  0.0mm 206 W/m2
08:24 52.3 °F /  11.3 °C 34.2 °F /  1.2 °C 29.9in /  1010.8hPa East 4mph /  6.4km/h 8mph /  12.9km/h 50% 0in /  0.0mm 221 W/m2
08:29 52.5 °F /  11.4 °C 34 °F /  1.1 °C 29.9in /  1010.8hPa ESE 2.9mph /  4.7km/h 9mph /  14.5km/h 49% 0in /  0.0mm 241 W/m2
08:34 52.9 °F /  11.6 °C 34.7 °F /  1.5 °C 29.9in /  1010.8hPa SE 4mph /  6.4km/h 5mph /  8km/h 50% 0in /  0.0mm 250 W/m2
08:39 52.9 °F /  11.6 °C 34.7 °F /  1.5 °C 29.9in /  1010.8hPa SSW 2mph /  3.2km/h 9mph /  14.5km/h 50% 0in /  0.0mm 260 W/m2
08:44 53.1 °F /  11.7 °C 34.3 °F /  1.3 °C 29.9in /  1010.8hPa NNW 4mph /  6.4km/h 9mph /  14.5km/h 49% 0in /  0.0mm 269 W/m2
08:49 53.1 °F /  11.7 °C 34.3 °F /  1.3 °C 29.9in /  1010.8hPa NE 4.9mph /  7.9km/h 14mph /  22.5km/h 49% 0in /  0.0mm 274 W/m2
08:54 53.2 °F /  11.8 °C 34.5 °F /  1.4 °C 29.9in /  1010.8hPa East 2mph /  3.2km/h 7mph /  11.3km/h 49% 0in /  0.0mm 290 W/m2
08:59 53.4 °F /  11.9 °C 34.7 °F /  1.5 °C 29.9in /  1010.8hPa NE 4.9mph /  7.9km/h 11mph /  17.7km/h 49% 0in /  0.0mm 297 W/m2
09:04 53.4 °F /  11.9 °C 34.2 °F /  1.2 °C 29.9in /  1010.8hPa ENE 4.9mph /  7.9km/h 13mph /  20.9km/h 48% 0in /  0.0mm 304 W/m2
09:09 53.8 °F /  12.1 °C 35.1 °F /  1.7 °C 29.9in /  1010.8hPa WNW 2mph /  3.2km/h 8mph /  12.9km/h 49% 0in /  0.0mm 327 W/m2
09:14 54 °F /  12.2 °C 34.7 °F /  1.5 °C 29.9in /  1010.8hPa SE 11mph /  17.7km/h 11mph /  17.7km/h 48% 0in /  0.0mm 364 W/m2
09:19 54.1 °F /  12.3 °C 34.9 °F /  1.6 °C 29.9in /  1010.8hPa North 6mph /  9.7km/h 12mph /  19.3km/h 48% 0in /  0.0mm 385 W/m2
09:25 54.7 °F /  12.6 °C 35.4 °F /  1.9 °C 29.9in /  1010.8hPa NE 2.9mph /  4.7km/h 11mph /  17.7km/h 48% 0in /  0.0mm 385 W/m2
09:30 54.9 °F /  12.7 °C 35.6 °F /  2 °C 29.9in /  1010.8hPa ENE 4mph /  6.4km/h 9mph /  14.5km/h 48% 0in /  0.0mm 403 W/m2
09:35 55 °F /  12.8 °C 34.7 °F /  1.5 °C 29.9in /  1010.8hPa East 0.9mph /  1.4km/h 13mph /  20.9km/h 46% 0in /  0.0mm 332 W/m2
09:40 55.2 °F /  12.9 °C 35.4 °F /  1.9 °C 29.9in /  1010.8hPa North 4.9mph /  7.9km/h 10mph /  16.1km/h 47% 0in /  0.0mm 394 W/m2
09:45 55.8 °F /  13.2 °C 35.8 °F /  2.1 °C 29.9in /  1010.8hPa East 4.9mph /  7.9km/h 7mph /  11.3km/h 47% 0in /  0.0mm 408 W/m2
09:50 56.1 °F /  13.4 °C 35.6 °F /  2 °C 29.9in /  1010.8hPa ENE 4mph /  6.4km/h 12mph /  19.3km/h 46% 0in /  0.0mm 381 W/m2
09:55 56.5 °F /  13.6 °C 36 °F /  2.2 °C 29.9in /  1010.8hPa East 6.9mph /  11.1km/h 9mph /  14.5km/h 46% 0in /  0.0mm 153 W/m2
10:00 56.5 °F /  13.6 °C 35.4 °F /  1.9 °C 29.9in /  1010.8hPa ENE 2.9mph /  4.7km/h 8mph /  12.9km/h 45% 0in /  0.0mm 353 W/m2
10:05 56.5 °F /  13.6 °C 36.5 °F /  2.5 °C 29.9in /  1010.8hPa East 2.9mph /  4.7km/h 4mph /  6.4km/h 47% 0in /  0.0mm 519 W/m2
10:10 57 °F /  13.9 °C 36 °F /  2.2 °C 29.9in /  1010.8hPa NE 4mph /  6.4km/h 8mph /  12.9km/h 45% 0in /  0.0mm 366 W/m2
10:15 57.2 °F /  14 °C 36 °F /  2.2 °C 29.9in /  1010.8hPa East 6.9mph /  11.1km/h 16mph /  25.7km/h 45% 0in /  0.0mm 348 W/m2
10:20 57 °F /  13.9 °C 36 °F /  2.2 °C 29.9in /  1010.8hPa ENE 10.1mph /  16.3km/h 10mph /  16.1km/h 45% 0in /  0.0mm 485 W/m2
10:25 57.4 °F /  14.1 °C 36.1 °F /  2.3 °C 29.9in /  1010.8hPa NNE 8.9mph /  14.3km/h 16mph /  25.7km/h 45% 0in /  0.0mm 418 W/m2
10:30 57 °F /  13.9 °C 35.2 °F /  1.8 °C 29.9in /  1010.8hPa ENE 6mph /  9.7km/h 11mph /  17.7km/h 44% 0in /  0.0mm 478 W/m2
10:36 57.4 °F /  14.1 °C 36.7 °F /  2.6 °C 29.9in /  1010.8hPa NE 6mph /  9.7km/h 16mph /  25.7km/h 46% 0in /  0.0mm 606 W/m2
10:41 58.3 °F /  14.6 °C 37 °F /  2.8 °C 29.9in /  1010.8hPa ENE 6mph /  9.7km/h 10mph /  16.1km/h 45% 0in /  0.0mm 566 W/m2
10:46 58.5 °F /  14.7 °C 36.7 °F /  2.6 °C 29.9in /  1010.8hPa NE 0.9mph /  1.4km/h 14mph /  22.5km/h 44% 0in /  0.0mm 476 W/m2
10:51 58.6 °F /  14.8 °C 36.9 °F /  2.7 °C 29.9in /  1010.8hPa NNE 4.9mph /  7.9km/h 11mph /  17.7km/h 44% 0in /  0.0mm 663 W/m2
10:56 59 °F /  15 °C 36.5 °F /  2.5 °C 29.9in /  1010.8hPa ENE 2mph /  3.2km/h 16mph /  25.7km/h 43% 0in /  0.0mm 647 W/m2
11:01 59 °F /  15 °C 36.5 °F /  2.5 °C 29.9in /  1010.8hPa ESE 4mph /  6.4km/h 15mph /  24.1km/h 43% 0in /  0.0mm 473 W/m2
11:06 59.2 °F /  15.1 °C 36.7 °F /  2.6 °C 29.9in /  1010.8hPa SE 4mph /  6.4km/h 16mph /  25.7km/h 43% 0in /  0.0mm 517 W/m2
11:11 59 °F /  15 °C 37 °F /  2.8 °C 29.9in /  1010.8hPa ESE 12.1mph /  19.5km/h 12mph /  19.3km/h 44% 0in /  0.0mm 369 W/m2
11:16 59.2 °F /  15.1 °C 36.7 °F /  2.6 °C 29.9in /  1010.8hPa East 2.9mph /  4.7km/h 14mph /  22.5km/h 43% 0in /  0.0mm 701 W/m2
11:21 59.5 °F /  15.3 °C 37 °F /  2.8 °C 29.9in /  1010.8hPa ESE 4.9mph /  7.9km/h 11mph /  17.7km/h 43% 0in /  0.0mm 452 W/m2
11:26 59.7 °F /  15.4 °C 37.8 °F /  3.2 °C 29.9in /  1010.8hPa NE 4.9mph /  7.9km/h 7mph /  11.3km/h 44% 0in /  0.0mm 712 W/m2
11:31 60.1 °F /  15.6 °C 37.6 °F /  3.1 °C 29.9in /  1010.8hPa NE 4mph /  6.4km/h 10mph /  16.1km/h 43% 0in /  0.0mm 554 W/m2
11:36 60.1 °F /  15.6 °C 36.9 °F /  2.7 °C 29.9in /  1010.8hPa ESE 2.9mph /  4.7km/h 10mph /  16.1km/h 42% 0in /  0.0mm 719 W/m2
11:41 60.4 °F /  15.8 °C 37.2 °F /  2.9 °C 29.9in /  1010.8hPa ESE 4mph /  6.4km/h 13mph /  20.9km/h 42% 0in /  0.0mm 714 W/m2
11:46 60.8 °F /  16 °C 38.1 °F /  3.4 °C 29.9in /  1010.8hPa ESE 6.9mph /  11.1km/h 11mph /  17.7km/h 43% 0in /  0.0mm 605 W/m2
11:51 60.6 °F /  15.9 °C 37.4 °F /  3 °C 29.9in /  1010.8hPa NE 2mph /  3.2km/h 12mph /  19.3km/h 42% 0in /  0.0mm 396 W/m2
11:56 60.4 °F /  15.8 °C 37.2 °F /  2.9 °C 29.9in /  1010.8hPa East 8.9mph /  14.3km/h 9mph /  14.5km/h 42% 0in /  0.0mm 283 W/m2
12:01 60.3 °F /  15.7 °C 37 °F /  2.8 °C 29.9in /  1010.8hPa ENE 8.9mph /  14.3km/h 17mph /  27.4km/h 42% 0in /  0.0mm 768 W/m2
12:06 61.2 °F /  16.2 °C 37.9 °F /  3.3 °C 29.9in /  1010.8hPa ENE 6mph /  9.7km/h 12mph /  19.3km/h 42% 0in /  0.0mm 814 W/m2
12:11 61.3 °F /  16.3 °C 37.4 °F /  3 °C 29.9in /  1010.8hPa ESE 4mph /  6.4km/h 17mph /  27.4km/h 41% 0in /  0.0mm 432 W/m2
12:16 61.3 °F /  16.3 °C 38.1 °F /  3.4 °C 29.9in /  1010.8hPa ENE 4mph /  6.4km/h 9mph /  14.5km/h 42% 0in /  0.0mm 729 W/m2
12:21 61.5 °F /  16.4 °C 37.6 °F /  3.1 °C 29.9in /  1010.8hPa ESE 10.1mph /  16.3km/h 15mph /  24.1km/h 41% 0in /  0.0mm 671 W/m2
Juneau County Weather
Compliments of Weather Underground - 2 mb